Kezdőlap
METAR-TAF:

METAR-TAF

Repülőterek :

Ranong, Thaiföld

földrajzi szélesség: 09-59N, földrajzi hosszúság: 098-37E, magasság: 7 m

Jelenlegi meteorológiai megfigyelések

A jelentés 29 perccel ezelõtt készült, 12:00 UTC
Keleti szél 6 kt, kelet-északkeleti és dél-délkeleti között változik
Hőmérséklet 28°C
Páratartalom 70%
Légköri nyomás 1011 hPa
Látótávolság 10 km, vagy több
Kevés felhő 2000 lábon

METAR: VTSR 151200Z 08006KT 060V160 9999 FEW020 28/22 Q1011 NOSIG

Idő: 19:29 (12:29 UTC)

Előrejelzés

A jelentés 1 órával és 29 perccel ezelõtt készült, 11:00 UTC
Az előrejelzés 15-én 12 óra UTC és 16-én 12 óra UTC között érvényes
Északi szél kt
Látótávolság 10 km, vagy több
Szórványos felhőzet 2500 lábon
16-én 02 óra UTC és 16-én 04 óra UTC között fokozatosan kialakuló
Északnyugati szél 6 kt

TAF: VTSR 151100Z 1512/1612 00000KT 9999 SCT025 BECMG 1602/1604 32006KT

Meteorológiai megfigyelések és előrejelzések több, mint 4000 repülőtéren (METAR és TAF jelentéseket).

A térképen piros és sárga pontok jelzik az elérhető meteorológiai állomásokat.

Mozgassa az egeret a pont fölött, hogy megjelenjen az állomás neve.

Azután kattintson az időjárási megfigyelések és előrejelzések megtekintéséhez.

A térkép megváltoztatása: kattintson a fekete keresztel jelölt zöld gombra ráközelítéshez, a vonallal jelölt zöld gombra távolításhoz, vagy a zöld nyilakra a szomszédos térképek eléréséhez.


METAR-TAF: